Time;durP1;ratioP1;P1;durP2;ratioP2;P2;SDS_P1;SDS_P2;PMS_P1;PMS_P2;Temp;Humidity;BMP_temperature;BMP_pressure;BME280_temperature;BME280_humidity;BME280_pressure;Samples;Min_cycle;Max_cycle;Signal;HPM_P1;HPM_P2
2023/06/26 00:00:56;;;;;;;0.30;0.30;;;25.10;56.00;;;25.80;39.66;95074.41;5032945;28;20330;-40
2023/06/26 00:03:23;;;;;;;0.35;0.35;;;25.10;56.00;;;25.78;39.54;95065.03;5033005;28;20207;-41
2023/06/26 00:05:50;;;;;;;0.30;0.30;;;25.10;56.10;;;25.76;39.99;95075.28;5033410;28;20214;-40
2023/06/26 00:08:18;;;;;;;0.32;0.32;;;25.10;56.10;;;25.73;40.00;95066.69;5032706;28;20212;-40
2023/06/26 00:10:46;;;;;;;0.30;0.30;;;25.10;56.10;;;25.72;39.74;95061.59;5032994;28;20689;-39
2023/06/26 00:13:13;;;;;;;0.40;0.40;;;25.00;56.10;;;25.71;39.63;95062.69;5032826;28;20196;-39
2023/06/26 00:15:40;;;;;;;0.47;0.47;;;25.00;56.10;;;25.66;39.72;95070.78;5033783;28;20617;-40
2023/06/26 00:18:07;;;;;;;0.30;0.30;;;25.00;56.20;;;25.66;39.94;95074.28;5034028;28;20194;-39
2023/06/26 00:20:34;;;;;;;0.50;0.50;;;25.00;56.30;;;25.64;40.11;95071.06;5033958;28;20252;-40
2023/06/26 00:23:04;;;;;;;0.40;0.40;;;25.00;56.40;;;25.63;40.04;95071.34;5033316;28;20244;-40
2023/06/26 00:25:31;;;;;;;0.40;0.40;;;24.90;56.30;;;25.61;40.08;95068.97;5033368;28;20290;-41
2023/06/26 00:27:58;;;;;;;0.30;0.30;;;24.90;56.40;;;25.61;40.16;95070.81;5033607;28;20234;-41
2023/06/26 00:30:25;;;;;;;0.30;0.30;;;24.90;56.50;;;25.58;40.21;95066.81;5033329;28;20218;-40
2023/06/26 00:32:52;;;;;;;0.40;0.40;;;24.90;56.50;;;25.56;40.12;95069.00;5032349;28;20222;-39
2023/06/26 00:35:20;;;;;;;0.30;0.30;;;24.90;56.60;;;25.55;40.22;95065.50;5032284;28;20210;-40
2023/06/26 00:37:47;;;;;;;0.30;0.30;;;24.90;56.60;;;25.54;39.85;95069.28;5032584;28;20522;-41
2023/06/26 00:40:15;;;;;;;0.30;0.30;;;24.90;56.60;;;25.52;40.07;95063.41;5033416;28;20284;-40
2023/06/26 00:42:42;;;;;;;0.30;0.30;;;24.90;56.60;;;25.50;40.18;95064.75;5032905;28;20647;-40
2023/06/26 00:45:09;;;;;;;0.50;0.50;;;24.90;56.70;;;25.50;40.05;95064.75;5048642;28;20198;-39
2023/06/26 00:47:37;;;;;;;0.30;0.30;;;24.90;56.70;;;25.48;40.36;95064.25;5033570;28;20213;-42
2023/06/26 00:50:06;;;;;;;0.50;0.50;;;24.80;56.60;;;25.47;40.39;95059.97;5032789;28;20234;-42
2023/06/26 00:52:33;;;;;;;0.30;0.30;;;24.80;56.60;;;25.46;40.35;95058.34;5033169;28;20548;-40
2023/06/26 00:55:01;;;;;;;0.30;0.30;;;24.80;56.70;;;25.43;40.41;95059.72;5032779;28;20195;-39
2023/06/26 00:57:28;;;;;;;0.35;0.35;;;24.80;56.70;;;25.40;40.23;95062.97;5033128;28;20198;-40
2023/06/26 00:59:55;;;;;;;0.30;0.30;;;24.80;56.70;;;25.37;40.31;95058.13;5032204;28;20573;-41
2023/06/26 01:02:22;;;;;;;0.32;0.32;;;24.80;56.70;;;25.34;40.19;95053.31;5032839;28;20198;-40
2023/06/26 01:04:51;;;;;;;0.30;0.30;;;24.70;56.70;;;25.31;40.60;95054.69;5032630;28;20191;-40
2023/06/26 01:07:19;;;;;;;0.30;0.30;;;24.70;57.30;;;25.29;40.52;95046.09;5031948;28;20266;-41
2023/06/26 01:09:48;;;;;;;0.30;0.30;;;24.70;56.80;;;25.28;40.66;95047.22;5032684;28;20198;-40
2023/06/26 01:12:16;;;;;;;0.50;0.50;;;24.70;58.10;;;25.26;40.43;95058.22;5032028;28;20316;-41
2023/06/26 01:14:43;;;;;;;0.50;0.50;;;24.60;56.80;;;25.25;40.38;95050.44;5031627;28;20219;-40
2023/06/26 01:17:15;;;;;;;0.30;0.30;;;24.70;56.90;;;25.22;40.60;95051.81;5032563;28;20262;-41
2023/06/26 01:19:45;;;;;;;0.30;0.30;;;24.70;57.00;;;25.21;40.38;95052.91;5031657;28;20210;-44
2023/06/26 01:22:30;;;;;;;0.30;0.30;;;24.60;56.90;;;25.18;40.57;95053.47;5032540;28;20194;-41
2023/06/26 01:25:20;;;;;;;0.38;0.38;;;24.60;57.00;;;25.15;40.63;95045.19;5031555;28;20516;-41
2023/06/26 01:27:50;;;;;;;0.30;0.30;;;24.60;57.00;;;25.13;40.67;95050.03;5031535;28;20542;-41
2023/06/26 01:30:19;;;;;;;0.40;0.40;;;24.50;56.80;;;25.12;40.71;95049.22;5031850;28;20222;-42
2023/06/26 01:32:46;;;;;;;0.30;0.30;;;24.50;56.90;;;25.10;40.78;95046.81;5032297;28;20294;-40
2023/06/26 01:35:15;;;;;;;0.30;0.30;;;24.50;57.00;;;25.09;40.66;95047.09;5015105;28;20205;-39
2023/06/26 01:37:42;;;;;;;0.30;0.30;;;24.50;57.00;;;25.07;41.02;95044.69;5031676;28;20219;-39
2023/06/26 01:40:10;;;;;;;0.28;0.28;;;24.50;58.30;;;25.07;40.92;95044.69;5015024;28;20202;-40
2023/06/26 01:42:39;;;;;;;0.30;0.30;;;24.50;57.20;;;25.05;40.91;95040.69;5031264;28;20606;-40
2023/06/26 01:45:15;;;;;;;0.30;0.30;;;24.40;57.10;;;25.03;40.90;95032.91;5047661;28;20641;-39
2023/06/26 01:47:49;;;;;;;0.30;0.30;;;24.40;57.10;;;25.00;40.74;95038.84;5031363;28;20602;-39
2023/06/26 01:50:26;;;;;;;0.30;0.30;;;24.40;57.20;;;24.98;40.79;95038.31;5015018;28;20193;-39
2023/06/26 01:53:14;;;;;;;0.50;0.50;;;24.40;57.20;;;24.94;40.94;95031.91;5047907;28;20207;-40
2023/06/26 01:56:07;;;;;;;0.32;0.32;;;24.40;57.20;;;24.89;40.91;95032.75;5032062;28;20500;-39
2023/06/26 01:58:43;;;;;;;0.30;0.30;;;24.40;57.10;;;24.90;40.94;95036.22;5031173;28;20205;-39
2023/06/26 02:01:12;;;;;;;0.30;0.30;;;24.40;58.40;;;24.89;41.00;95026.56;5031552;28;20193;-40
2023/06/26 02:03:39;;;;;;;0.30;0.30;;;24.40;57.20;;;24.88;41.09;95027.69;5031826;28;20197;-39
2023/06/26 02:06:07;;;;;;;0.30;0.30;;;24.30;57.10;;;24.86;41.02;95027.94;5030981;28;20302;-39
2023/06/26 02:08:34;;;;;;;0.40;0.40;;;24.30;57.20;;;24.84;41.03;95024.75;5032208;28;20195;-39
2023/06/26 02:11:01;;;;;;;0.50;0.50;;;24.30;58.50;;;24.82;40.96;95021.53;5030981;28;20207;-39
2023/06/26 02:13:28;;;;;;;0.30;0.30;;;24.30;57.20;;;24.80;41.20;95020.22;5031229;28;20236;-40
2023/06/26 02:15:55;;;;;;;0.30;0.30;;;24.30;57.30;;;24.80;41.23;95034.41;5047761;28;20226;-39
2023/06/26 02:18:23;;;;;;;0.40;0.40;;;24.30;57.30;;;24.77;41.16;95021.56;5032014;28;20210;-39
2023/06/26 02:20:50;;;;;;;0.30;0.30;;;24.20;57.20;;;24.76;41.27;95026.13;5031753;28;20638;-41
2023/06/26 02:23:17;;;;;;;0.30;0.30;;;24.20;57.30;;;24.74;41.28;95022.94;5031624;28;20553;-39
2023/06/26 02:25:44;;;;;;;0.30;0.30;;;24.20;58.50;;;24.71;40.89;95020.81;5014477;28;20208;-40
2023/06/26 02:28:13;;;;;;;0.30;0.30;;;24.20;57.20;;;24.72;41.01;95021.63;5031910;28;20221;-39
2023/06/26 02:30:40;;;;;;;0.30;0.30;;;24.20;57.30;;;24.71;40.98;95025.38;5030691;28;20211;-40
2023/06/26 02:33:07;;;;;;;0.30;0.30;;;24.10;57.20;;;24.68;41.06;95032.09;5047394;28;20231;-44
2023/06/26 02:35:35;;;;;;;0.30;0.30;;;24.10;57.30;;;24.66;41.21;95031.56;5031474;28;20191;-39
2023/06/26 02:38:02;;;;;;;0.38;0.38;;;24.10;57.20;;;24.66;41.12;95028.06;5047144;28;20297;-39
2023/06/26 02:40:29;;;;;;;0.38;0.38;;;24.10;57.30;;;24.62;41.10;95028.63;5030558;28;20259;-39
2023/06/26 02:42:58;;;;;;;0.40;0.40;;;24.10;57.50;;;24.60;41.03;95035.34;5047110;28;20202;-44
2023/06/26 02:45:25;;;;;;;0.30;0.30;;;24.10;57.50;;;24.58;41.02;95029.44;5031339;28;20205;-41
2023/06/26 02:47:52;;;;;;;0.40;0.40;;;24.00;57.40;;;24.57;41.34;95034.00;5030607;28;20201;-40
2023/06/26 02:50:20;;;;;;;0.30;0.30;;;24.00;57.40;;;24.56;41.20;95031.59;5047359;28;20222;-40
2023/06/26 02:53:03;;;;;;;0.30;0.30;;;24.00;57.40;;;24.54;41.20;95029.19;5030376;28;20676;-41
2023/06/26 02:55:30;;;;;;;0.38;0.38;;;24.00;57.50;;;24.53;41.36;95032.94;5046808;28;20690;-42
2023/06/26 02:57:58;;;;;;;0.40;0.40;;;24.00;57.50;;;24.51;41.36;95026.25;5047113;28;20221;-42
2023/06/26 03:00:25;;;;;;;0.40;0.40;;;24.00;57.60;;;24.50;41.44;95038.06;5030828;28;20262;-41
2023/06/26 03:02:54;;;;;;;0.30;0.30;;;24.00;57.60;;;24.48;41.44;95024.94;5033726;28;20636;-41
2023/06/26 03:05:23;;;;;;;0.30;0.30;;;24.00;57.60;;;24.47;41.43;95023.34;5033507;28;20236;-41
2023/06/26 03:07:52;;;;;;;0.30;0.30;;;24.00;57.70;;;24.44;41.39;95027.38;5050225;28;20258;-41
2023/06/26 03:10:19;;;;;;;0.30;0.30;;;23.90;57.60;;;24.43;41.50;95027.66;5034565;28;20339;-42
2023/06/26 03:12:46;;;;;;;0.35;0.35;;;23.90;57.70;;;24.41;41.60;95022.59;5033491;28;20233;-41
2023/06/26 03:15:13;;;;;;;0.40;0.40;;;23.90;57.70;;;24.39;41.70;95014.00;5033641;28;20209;-41
2023/06/26 03:17:40;;;;;;;0.40;0.40;;;23.90;57.70;;;24.39;41.65;95013.19;5017153;28;20240;-42
2023/06/26 03:20:13;;;;;;;0.32;0.32;;;23.90;57.80;;;24.37;41.85;95013.47;5049846;28;20543;-42
2023/06/26 03:22:47;;;;;;;0.40;0.40;;;23.90;57.80;;;24.36;41.63;95014.53;5034522;28;20224;-39
2023/06/26 03:25:16;;;;;;;0.30;0.30;;;23.90;57.90;;;24.36;41.67;95016.44;5049880;28;20559;-40
2023/06/26 03:27:43;;;;;;;0.30;0.30;;;23.90;57.90;;;24.35;41.82;95017.50;5033367;28;20241;-41
2023/06/26 03:30:14;;;;;;;0.32;0.32;;;23.90;58.00;;;24.34;41.82;95019.41;5033315;28;20606;-40
2023/06/26 03:32:43;;;;;;;0.50;0.50;;;23.90;58.00;;;24.32;41.94;95016.19;5034120;28;20209;-40
2023/06/26 03:35:11;;;;;;;0.30;0.30;;;23.90;58.00;;;24.30;41.73;95012.97;5034056;28;20209;-45
2023/06/26 03:37:38;;;;;;;0.30;0.30;;;23.80;57.90;;;24.28;41.82;95015.94;5034698;28;20579;-42
2023/06/26 03:40:08;;;;;;;0.40;0.40;;;23.80;58.00;;;24.26;42.16;95023.44;5034308;28;20674;-39
2023/06/26 03:42:36;;;;;;;0.32;0.32;;;23.80;58.00;;;24.26;41.87;95028.00;5033427;28;20211;-39
2023/06/26 03:45:05;;;;;;;0.30;0.30;;;23.80;58.00;;;24.25;41.90;95029.88;5033165;28;20196;-38
2023/06/26 03:47:34;;;;;;;0.30;0.30;;;23.80;58.00;;;24.24;41.99;95027.47;5049947;28;20199;-43
2023/06/26 03:50:02;;;;;;;0.40;0.40;;;23.80;58.10;;;24.23;41.96;95024.00;5034030;28;20202;-39
2023/06/26 03:52:30;;;;;;;0.30;0.30;;;23.80;58.20;;;24.22;42.14;95026.97;5049539;28;20220;-39
2023/06/26 03:54:58;;;;;;;0.30;0.30;;;23.80;58.20;;;24.22;41.92;95035.00;5033127;28;20209;-41
2023/06/26 03:57:25;;;;;;;0.40;0.40;;;23.70;58.20;;;24.21;42.23;95030.72;5049521;28;20254;-38
2023/06/26 03:59:53;;;;;;;0.40;0.40;;;23.70;58.30;;;24.20;42.29;95032.59;5034075;28;20251;-39
2023/06/26 04:02:22;;;;;;;0.30;0.30;;;23.80;58.40;;;24.19;42.41;95039.03;5049394;28;20596;-40
2023/06/26 04:04:50;;;;;;;0.30;0.30;;;23.70;58.30;;;24.18;42.35;95032.09;5032646;28;20200;-40
2023/06/26 04:07:17;;;;;;;0.35;0.35;;;23.70;58.40;;;24.18;42.32;95032.09;5016728;28;20200;-40
2023/06/26 04:09:45;;;;;;;0.38;0.38;;;23.80;58.60;;;24.17;42.41;95035.84;5033131;28;20518;-42
2023/06/26 04:12:12;;;;;;;0.30;0.30;;;23.80;58.70;;;24.17;42.43;95041.19;5032730;28;20552;-38
2023/06/26 04:14:39;;;;;;;0.30;0.30;;;23.70;58.60;;;24.15;42.42;95027.25;5033474;28;20194;-39
2023/06/26 04:17:06;;;;;;;0.50;0.50;;;23.70;58.70;;;24.16;42.70;95034.22;5032945;28;20621;-40
2023/06/26 04:19:35;;;;;;;0.40;0.40;;;23.70;58.80;;;24.14;42.78;95031.00;5033548;28;20197;-41
2023/06/26 04:22:03;;;;;;;0.30;0.30;;;23.70;58.80;;;24.17;42.76;95032.34;5033537;28;20288;-42
2023/06/26 04:24:30;;;;;;;0.38;0.38;;;23.80;59.00;;;24.15;42.46;95027.25;5033467;28;20268;-42
2023/06/26 04:26:58;;;;;;;0.30;0.30;;;23.70;59.00;;;24.16;42.79;95034.22;5033604;28;20194;-42
2023/06/26 04:29:27;;;;;;;0.30;0.30;;;23.70;59.10;;;24.16;42.83;95036.91;5033350;28;20230;-41
2023/06/26 04:31:57;;;;;;;0.30;0.30;;;23.70;59.20;;;24.16;42.92;95036.91;5048835;28;20628;-41
2023/06/26 04:34:27;;;;;;;0.35;0.35;;;23.70;59.20;;;24.17;43.12;95032.34;5033437;28;20277;-41
2023/06/26 04:36:54;;;;;;;0.30;0.30;;;23.70;59.40;;;24.18;43.02;95029.41;5033263;28;20676;-41
2023/06/26 04:39:22;;;;;;;0.30;0.30;;;23.70;59.40;;;24.18;43.17;95031.25;5033173;28;20197;-41
2023/06/26 04:41:49;;;;;;;0.40;0.40;;;23.70;59.50;;;24.19;43.06;95027.50;5033440;28;20224;-41
2023/06/26 04:44:16;;;;;;;0.30;0.30;;;23.70;59.40;;;24.19;43.39;95032.88;5032887;28;20280;-41
2023/06/26 04:46:43;;;;;;;0.30;0.30;;;23.80;59.60;;;24.19;43.32;95028.31;5033437;28;20295;-42
2023/06/26 04:49:10;;;;;;;0.30;0.30;;;23.80;59.60;;;24.20;43.42;95037.94;5033120;28;20220;-42
2023/06/26 04:51:40;;;;;;;0.40;0.40;;;23.80;59.70;;;24.19;43.49;95033.66;5033037;28;20632;-42
2023/06/26 04:54:08;;;;;;;0.30;0.30;;;23.80;59.70;;;24.21;43.63;95026.16;5032311;28;20599;-44
2023/06/26 04:56:35;;;;;;;0.45;0.45;;;23.80;59.80;;;24.22;43.50;95025.09;5032766;28;20198;-42
2023/06/26 04:59:03;;;;;;;0.30;0.30;;;23.80;59.80;;;24.23;43.50;95033.91;5032903;28;20290;-41
2023/06/26 05:01:31;;;;;;;0.30;0.30;;;23.80;59.90;;;24.24;43.69;95033.66;5048531;28;20581;-41
2023/06/26 05:03:59;;;;;;;0.40;0.40;;;23.80;59.80;;;24.24;43.81;95038.19;5033072;28;20577;-42
2023/06/26 05:06:26;;;;;;;0.30;0.30;;;23.80;59.90;;;24.25;43.71;95037.13;5032696;28;20205;-42
2023/06/26 05:08:54;;;;;;;0.40;0.40;;;23.90;60.00;;;24.25;43.89;95043.28;5032075;28;20646;-41
2023/06/26 05:11:21;;;;;;;0.30;0.30;;;23.90;59.90;;;24.27;43.63;95033.09;5033076;28;20532;-40
2023/06/26 05:13:48;;;;;;;0.35;0.35;;;23.90;60.00;;;24.28;43.79;95039.28;5032862;28;20256;-41
2023/06/26 05:16:15;;;;;;;0.30;0.30;;;23.90;60.10;;;24.28;43.90;95037.38;5032535;28;20198;-40
2023/06/26 05:18:43;;;;;;;0.45;0.45;;;23.90;60.10;;;24.32;43.93;95050.25;5048444;28;20263;-41
2023/06/26 05:21:10;;;;;;;0.40;0.40;;;23.90;60.10;;;24.33;43.78;95044.59;5032563;28;20216;-40
2023/06/26 05:23:38;;;;;;;0.30;0.30;;;24.00;60.20;;;24.33;43.81;95039.25;5032053;28;20310;-41
2023/06/26 05:26:05;;;;;;;0.30;0.30;;;24.00;60.20;;;24.34;44.20;95042.72;5031365;28;20703;-40
2023/06/26 05:28:33;;;;;;;0.20;0.20;;;24.00;60.20;;;24.35;44.08;95038.94;5032979;28;20194;-41
2023/06/26 05:31:00;;;;;;;0.30;0.30;;;24.00;60.20;;;24.37;44.14;95036.81;5032703;28;20205;-42
2023/06/26 05:33:28;;;;;;;0.30;0.30;;;24.10;60.20;;;24.39;43.96;95048.84;5032209;28;20679;-41
2023/06/26 05:35:55;;;;;;;0.30;0.30;;;24.00;60.20;;;24.41;44.04;95038.66;5031647;28;20600;-41
2023/06/26 05:38:23;;;;;;;0.38;0.38;;;24.00;60.20;;;24.42;44.08;95040.25;5032389;28;20239;-41
2023/06/26 05:40:51;;;;;;;0.25;0.25;;;24.10;60.20;;;24.45;44.18;95036.25;5032190;28;20205;-40
2023/06/26 05:43:20;;;;;;;0.30;0.30;;;24.10;60.30;;;24.45;44.07;95033.56;5032864;28;20295;-40
2023/06/26 05:45:54;;;;;;;0.30;0.30;;;24.10;60.30;;;24.46;44.12;95041.31;5032502;28;20288;-42
2023/06/26 05:48:21;;;;;;;0.32;0.32;;;24.10;60.30;;;24.50;44.22;95046.94;5047771;28;20228;-41
2023/06/26 05:50:49;;;;;;;0.30;0.30;;;24.10;60.30;;;24.51;44.31;95039.66;5032203;28;20189;-42
2023/06/26 05:53:17;;;;;;;0.40;0.40;;;24.20;60.40;;;24.53;44.32;95042.88;5031238;28;20222;-41
2023/06/26 05:55:44;;;;;;;0.40;0.40;;;24.20;60.40;;;24.55;44.45;95041.53;5031286;28;20295;-41
2023/06/26 05:58:12;;;;;;;0.30;0.30;;;24.20;60.50;;;24.55;44.44;95036.16;5032055;28;20284;-43
2023/06/26 06:00:40;;;;;;;0.35;0.35;;;24.20;60.60;;;24.57;44.39;95039.38;5032328;28;20201;-40
2023/06/26 06:03:10;;;;;;;0.30;0.30;;;24.20;60.60;;;24.59;44.47;95036.41;5031060;28;20212;-42
2023/06/26 06:05:38;;;;;;;0.40;0.40;;;24.20;60.50;;;24.60;44.44;95038.81;5032306;28;20196;-42
2023/06/26 06:08:05;;;;;;;0.30;0.30;;;24.30;60.60;;;24.62;44.58;95030.50;5032198;28;20241;-43
2023/06/26 06:10:32;;;;;;;0.30;0.30;;;24.30;60.60;;;24.65;44.37;95045.25;5032158;28;20209;-41
2023/06/26 06:12:59;;;;;;;0.40;0.40;;;24.30;60.70;;;24.67;44.64;95037.72;5032092;28;20225;-42
2023/06/26 06:15:26;;;;;;;0.30;0.30;;;24.30;60.70;;;24.68;44.51;95031.28;5031827;28;20624;-41
2023/06/26 06:17:56;;;;;;;0.40;0.40;;;24.40;60.80;;;24.70;44.59;95034.50;5032063;28;20184;-42
2023/06/26 06:20:25;;;;;;;0.30;0.30;;;24.40;60.70;;;24.73;44.70;95034.75;5032298;28;20209;-42
2023/06/26 06:22:52;;;;;;;0.50;0.50;;;24.40;60.80;;;24.76;44.61;95033.38;5031000;28;20230;-43
2023/06/26 06:25:20;;;;;;;0.32;0.32;;;24.40;60.90;;;24.77;44.77;95035.00;5030864;28;20209;-42
2023/06/26 06:27:47;;;;;;;0.50;0.50;;;24.40;60.80;;;24.80;44.69;95030.94;5031991;28;20226;-42
2023/06/26 06:30:14;;;;;;;0.30;0.30;;;24.40;60.90;;;24.82;44.74;95028.78;5014669;28;20225;-41
2023/06/26 06:32:41;;;;;;;0.60;0.60;;;24.50;61.00;;;24.83;44.83;95031.19;5031825;28;20198;-41
2023/06/26 06:35:09;;;;;;;0.40;0.40;;;24.50;60.90;;;24.87;44.74;95031.44;5031637;28;20220;-41
2023/06/26 06:37:38;;;;;;;0.50;0.50;;;24.50;60.90;;;24.88;44.67;95031.16;5034316;28;20200;-42
2023/06/26 06:40:06;;;;;;;0.30;0.30;;;24.50;60.80;;;24.90;44.60;95029.00;5035379;28;20210;-42
2023/06/26 06:42:34;;;;;;;0.30;0.30;;;24.60;60.90;;;24.89;44.58;95022.03;5050635;28;20202;-41
2023/06/26 06:45:03;;;;;;;0.35;0.35;;;24.60;60.80;;;24.93;44.79;95025.72;5035228;28;20627;-41
2023/06/26 06:47:34;;;;;;;0.60;0.60;;;24.60;60.80;;;24.94;44.56;95021.19;5034771;28;20210;-41
2023/06/26 06:50:07;;;;;;;0.30;0.30;;;24.60;60.70;;;24.98;44.61;95024.91;5034077;28;20187;-42
2023/06/26 06:52:38;;;;;;;0.32;0.32;;;24.60;60.80;;;25.00;44.67;95029.97;5034301;28;20198;-41
2023/06/26 06:55:08;;;;;;;0.40;0.40;;;24.70;60.90;;;25.02;44.63;95025.13;5050441;28;20574;-43
2023/06/26 06:57:37;;;;;;;0.38;0.38;;;24.70;60.70;;;25.03;44.85;95029.44;5034673;28;20184;-42
2023/06/26 07:00:13;;;;;;;0.30;0.30;;;24.70;60.80;;;25.05;44.55;95029.97;5034809;28;20198;-41
2023/06/26 07:02:44;;;;;;;0.30;0.30;;;24.70;61.70;;;25.05;44.51;95020.00;5034861;28;20633;-41
2023/06/26 07:05:12;;;;;;;0.30;0.30;;;24.70;60.70;;;25.08;44.68;95024.00;5034146;28;20263;-40
2023/06/26 07:07:40;;;;;;;0.30;0.30;;;24.80;60.70;;;25.10;44.63;95019.97;5034845;28;20199;-40
2023/06/26 07:10:13;;;;;;;0.30;0.30;;;24.80;60.70;;;25.12;44.67;95011.66;5033925;28;20254;-41
2023/06/26 07:12:40;;;;;;;0.30;0.30;;;24.80;60.70;;;25.14;44.64;95016.72;5033967;28;20617;-40
2023/06/26 07:15:08;;;;;;;0.40;0.40;;;24.80;60.60;;;25.16;44.43;95011.88;5050377;28;20190;-40
2023/06/26 07:17:35;;;;;;;0.30;0.30;;;24.80;60.60;;;25.18;44.34;95007.84;5034621;28;20515;-41
2023/06/26 07:20:08;;;;;;;0.50;0.50;;;24.80;60.60;;;25.19;44.53;95017.47;5033921;28;20199;-41
2023/06/26 07:22:36;;;;;;;0.30;0.30;;;24.90;60.60;;;25.22;44.35;95016.13;5034254;28;20253;-40
2023/06/26 07:25:04;;;;;;;0.20;0.20;;;24.90;60.50;;;25.23;44.30;95015.84;5034677;28;20183;-40
2023/06/26 07:27:33;;;;;;;0.32;0.32;;;24.90;60.50;;;25.26;44.28;95017.94;5034446;28;20524;-40
2023/06/26 07:30:00;;;;;;;0.30;0.30;;;24.90;60.50;;;25.28;44.26;95014.19;5034441;28;20204;-40
2023/06/26 07:32:27;;;;;;;0.40;0.40;;;24.90;60.50;;;25.30;44.50;95007.44;5034299;28;20268;-41
2023/06/26 07:34:54;;;;;;;0.50;0.50;;;25.00;60.50;;;25.34;44.20;95016.56;5034422;28;20216;-40
2023/06/26 07:37:22;;;;;;;0.35;0.35;;;25.00;60.50;;;25.37;44.35;95023.22;5034027;28;20219;-41
2023/06/26 07:39:49;;;;;;;0.52;0.52;;;25.00;60.50;;;25.37;44.42;95012.50;5049803;28;20205;-41
2023/06/26 07:42:17;;;;;;;0.30;0.30;;;25.00;60.50;;;25.40;44.18;95011.94;5034114;28;20222;-40
2023/06/26 07:44:44;;;;;;;0.30;0.30;;;25.00;60.50;;;25.41;44.33;95017.06;5034617;28;20211;-40
2023/06/26 07:47:11;;;;;;;0.30;0.30;;;25.00;60.40;;;25.44;44.01;95012.19;5034022;28;20212;-41
2023/06/26 07:49:40;;;;;;;0.30;0.30;;;25.10;60.40;;;25.47;44.03;95015.09;5034613;28;20282;-41
2023/06/26 07:52:10;;;;;;;0.30;0.30;;;25.10;60.50;;;25.49;44.24;95018.31;5034537;28;20193;-41
2023/06/26 07:54:38;;;;;;;0.30;0.30;;;25.10;60.40;;;25.53;43.98;95021.22;5033852;28;20215;-42
2023/06/26 07:57:08;;;;;;;0.50;0.50;;;25.20;60.40;;;25.54;44.26;95014.78;5033827;28;20199;-42
2023/06/26 07:59:36;;;;;;;0.43;0.43;;;25.10;60.20;;;25.55;43.99;95011.00;5033879;28;20191;-41
2023/06/26 08:02:04;;;;;;;0.30;0.30;;;25.20;60.20;;;25.56;43.98;95013.41;5033802;28;20645;-41
2023/06/26 08:04:31;;;;;;;0.30;0.30;;;25.20;60.20;;;25.61;44.07;95019.78;5033779;28;20260;-42
2023/06/26 08:07:00;;;;;;;0.40;0.40;;;25.20;60.20;;;25.62;43.95;95016.84;5032911;28;20207;-41
2023/06/26 08:09:29;;;;;;;0.40;0.40;;;25.20;60.20;;;25.64;43.77;95020.03;5033120;28;20582;-42
2023/06/26 08:11:57;;;;;;;0.30;0.30;;;25.30;60.10;;;25.67;43.78;95010.59;5033697;28;20227;-40
2023/06/26 08:14:24;;;;;;;0.30;0.30;;;25.30;60.00;;;25.69;43.73;95016.50;5033556;28;20224;-41
2023/06/26 08:16:52;;;;;;;0.20;0.20;;;25.30;60.10;;;25.71;43.60;95017.81;5033934;28;20260;-38
2023/06/26 08:19:19;;;;;;;0.30;0.30;;;25.40;60.00;;;25.73;43.64;95010.28;5034088;28;20194;-41
2023/06/26 08:21:47;;;;;;;0.35;0.35;;;25.40;60.00;;;25.78;43.69;95008.59;5033495;28;20284;-43
2023/06/26 08:24:16;;;;;;;0.30;0.30;;;25.40;59.90;;;25.80;43.31;95011.81;5048824;28;20297;-39
2023/06/26 08:26:46;;;;;;;0.30;0.30;;;25.40;59.80;;;25.82;43.75;95010.44;5032515;28;20193;-40
2023/06/26 08:29:14;;;;;;;0.30;0.30;;;25.40;59.80;;;25.84;43.62;95008.28;5033475;28;20191;-42
2023/06/26 08:31:43;;;;;;;0.30;0.30;;;25.50;59.80;;;25.86;43.36;95011.44;5032842;28;20630;-43
2023/06/26 08:34:10;;;;;;;0.28;0.28;;;25.40;60.60;;;25.87;43.28;94998.84;5033225;28;20668;-41
2023/06/26 08:36:38;;;;;;;0.40;0.40;;;25.50;59.70;;;25.90;43.13;95011.69;5033642;28;20203;-43
2023/06/26 08:39:05;;;;;;;0.20;0.20;;;25.50;59.60;;;25.93;43.26;95007.63;5016478;28;20224;-41
2023/06/26 08:41:32;;;;;;;0.38;0.38;;;25.60;59.60;;;25.95;43.21;95003.56;5033190;28;20211;-41
2023/06/26 08:44:00;;;;;;;0.30;0.30;;;25.60;59.50;;;25.97;43.18;95006.75;5049581;28;20210;-45
2023/06/26 08:46:28;;;;;;;0.30;0.30;;;25.60;59.50;;;25.98;43.29;94997.63;5033127;28;20637;-44
2023/06/26 08:49:14;;;;;;;0.50;0.50;;;25.60;59.50;;;26.03;43.47;95004.81;5033060;28;20600;-42
2023/06/26 08:51:47;;;;;;;0.32;0.32;;;25.60;59.40;;;26.03;42.98;94997.53;5033586;28;20225;-42
2023/06/26 08:54:17;;;;;;;0.30;0.30;;;25.60;59.30;;;26.07;43.24;95000.47;5032441;28;20239;-41
2023/06/26 08:56:48;;;;;;;0.30;0.30;;;25.70;59.40;;;26.08;43.37;94998.63;5015778;28;20283;-42
2023/06/26 08:59:16;;;;;;;0.40;0.40;;;25.70;59.40;;;26.10;43.00;94999.09;5032619;28;20207;-41
2023/06/26 09:01:44;;;;;;;0.30;0.30;;;25.70;59.40;;;26.13;43.24;94999.34;5033101;28;20213;-41
2023/06/26 09:04:12;;;;;;;0.30;0.30;;;25.70;59.20;;;26.14;42.83;94992.88;5033132;28;20682;-42
2023/06/26 09:06:39;;;;;;;0.30;0.30;;;25.80;59.30;;;26.16;42.98;94997.97;5032924;28;20201;-40
2023/06/26 09:09:07;;;;;;;0.40;0.40;;;25.80;59.30;;;26.20;43.13;94994.41;5032194;28;20222;-40
2023/06/26 09:11:34;;;;;;;0.25;0.25;;;25.80;59.20;;;26.21;42.83;94992.53;5032740;28;20273;-40
2023/06/26 09:14:05;;;;;;;0.30;0.30;;;25.80;59.20;;;26.23;42.98;95000.31;5032611;28;20312;-42
2023/06/26 09:16:39;;;;;;;0.30;0.30;;;25.80;59.00;;;26.26;42.78;95002.41;5048173;28;20221;-38
2023/06/26 09:19:11;;;;;;;0.20;0.20;;;25.80;58.90;;;26.29;42.70;94994.56;5032641;28;20203;-42
2023/06/26 09:21:40;;;;;;;0.25;0.25;;;25.90;58.60;;;26.32;42.57;94995.88;5033158;28;20197;-38
2023/06/26 09:24:09;;;;;;;0.30;0.30;;;25.90;58.70;;;26.34;42.96;94996.38;5032438;28;20689;-38
2023/06/26 09:26:38;;;;;;;0.30;0.30;;;25.90;58.70;;;26.38;42.50;94994.72;5032393;28;20251;-39
2023/06/26 09:29:06;;;;;;;0.30;0.30;;;25.90;58.70;;;26.40;42.48;94995.22;5033552;28;20220;-38
2023/06/26 09:31:36;;;;;;;0.30;0.30;;;26.00;58.70;;;26.42;42.72;94987.66;5048251;28;20197;-39
2023/06/26 09:34:08;;;;;;;0.30;0.30;;;26.00;58.70;;;26.45;42.81;94989.78;5031574;28;20278;-38
2023/06/26 09:36:36;;;;;;;0.20;0.20;;;26.00;58.60;;;26.49;42.29;94990.78;5031439;28;20191;-39
2023/06/26 09:39:10;;;;;;;0.30;0.30;;;26.10;58.60;;;26.50;42.24;94987.00;5032651;28;20189;-38
2023/06/26 09:41:42;;;;;;;0.25;0.25;;;26.10;58.50;;;26.53;42.35;94989.09;5032704;28;20592;-39
2023/06/26 09:44:13;;;;;;;0.20;0.20;;;26.10;58.40;;;26.56;42.23;94984.25;5032012;28;20208;-39
2023/06/26 09:46:45;;;;;;;0.30;0.30;;;26.10;58.40;;;26.59;42.10;94989.06;5031305;28;20606;-41
2023/06/26 09:49:12;;;;;;;0.30;0.30;;;26.20;58.40;;;26.61;42.25;94984.97;5032525;28;20202;-39
2023/06/26 09:51:42;;;;;;;0.30;0.30;;;26.20;58.40;;;26.64;42.02;94981.69;5048024;28;20313;-39
2023/06/26 09:54:09;;;;;;;0.30;0.30;;;26.20;58.30;;;26.68;42.15;94976.53;5033129;28;20507;-39
2023/06/26 09:56:37;;;;;;;0.20;0.20;;;26.20;58.20;;;26.69;42.33;94981.59;5031988;28;20220;-38
2023/06/26 09:59:06;;;;;;;0.30;0.30;;;26.30;58.40;;;26.74;42.37;94982.63;5032348;28;20209;-39
2023/06/26 10:01:40;;;;;;;0.20;0.20;;;26.30;58.30;;;26.77;42.09;94982.06;5032322;28;20527;-42
2023/06/26 10:04:08;;;;;;;0.30;0.30;;;26.30;58.20;;;26.79;42.21;94980.69;5047840;28;20190;-40
2023/06/26 10:06:48;;;;;;;0.30;0.30;;;26.40;59.60;;;26.82;42.01;94985.47;5031967;28;20216;-42
2023/06/26 10:09:19;;;;;;;0.30;0.30;;;26.40;58.20;;;26.84;42.07;94975.22;5031984;28;20245;-40
2023/06/26 10:11:55;;;;;;;0.30;0.30;;;26.40;58.20;;;26.87;42.39;94975.72;5034694;28;20192;-40
2023/06/26 10:14:27;;;;;;;0.30;0.30;;;26.40;58.20;;;26.89;41.85;94979.75;5034623;28;20300;-42
2023/06/26 10:17:00;;;;;;;0.30;0.30;;;26.50;58.50;;;26.91;41.74;94979.44;5034452;28;20508;-42
2023/06/26 10:19:29;;;;;;;0.20;0.20;;;26.50;58.20;;;26.93;41.78;94980.72;5035448;28;20610;-43
2023/06/26 10:21:58;;;;;;;0.20;0.20;;;26.50;58.20;;;26.95;42.00;94980.44;5034481;28;20190;-41
2023/06/26 10:24:29;;;;;;;0.20;0.20;;;26.50;58.20;;;26.97;41.78;94968.28;5034386;28;20244;-42
2023/06/26 10:27:05;;;;;;;0.30;0.30;;;26.50;58.10;;;26.99;41.96;94968.00;5034619;28;20190;-42